Time;durP1;ratioP1;P1;durP2;ratioP2;P2;SDS_P1;SDS_P2;PMS_P1;PMS_P2;Temp;Humidity;BMP_temperature;BMP_pressure;BME280_temperature;BME280_humidity;BME280_pressure;Samples;Min_cycle;Max_cycle;Signal;HPM_P1;HPM_P2
2022/03/23 00:00:47;;;;;;;25.40;16.30;;;205.20;1612.80;;;;;;4973019;28;20027;-55
2022/03/23 00:03:15;;;;;;;23.77;13.85;;;205.10;1612.80;;;;;;4974074;28;20066;-56
2022/03/23 00:05:41;;;;;;;24.73;15.40;;;205.10;1638.40;;;;;;4974082;28;20042;-55
2022/03/23 00:08:08;;;;;;;24.70;14.38;;;205.00;1612.80;;;;;;4953621;29;20042;-54
2022/03/23 00:10:34;;;;;;;25.38;14.27;;;204.90;1638.40;;;;;;4971434;28;20031;-55
2022/03/23 00:13:01;;;;;;;19.58;13.25;;;205.00;1612.80;;;;;;4974178;28;20392;-55
2022/03/23 00:15:30;;;;;;;26.60;14.43;;;205.10;1612.80;;;;;;4974329;28;20041;-56
2022/03/23 00:17:57;;;;;;;23.48;14.15;;;204.90;1638.40;;;;;;4974113;28;20110;-55
2022/03/23 00:20:23;;;;;;;19.85;12.98;;;205.10;1612.80;;;;;;4973901;28;20110;-54
2022/03/23 00:22:50;;;;;;;22.67;14.52;;;205.10;1638.40;;;;;;4974264;28;20549;-56
2022/03/23 00:25:16;;;;;;;46.42;34.67;;;205.10;1612.80;;;;;;4973986;28;20469;-55
2022/03/23 00:27:41;;;;;;;24.52;15.60;;;205.10;1612.80;;;;;;4973625;28;20030;-56
2022/03/23 00:30:08;;;;;;;24.65;16.05;;;205.10;1612.80;;;;;;4973846;28;20093;-55
2022/03/23 00:32:34;;;;;;;22.27;15.13;;;205.00;1638.40;;;;;;4973781;28;20031;-55
2022/03/23 00:35:01;;;;;;;23.40;13.75;;;204.80;1638.40;;;;;;4973730;28;20066;-57
2022/03/23 00:37:27;;;;;;;27.10;15.15;;;204.80;1638.40;;;;;;4973780;28;20018;-54
2022/03/23 00:39:52;;;;;;;28.88;16.85;;;204.90;1638.40;;;;;;4973458;28;20082;-55
2022/03/23 00:42:18;;;;;;;20.20;13.93;;;204.80;1638.40;;;;;;4973519;28;20031;-55
2022/03/23 00:44:44;;;;;;;23.15;13.77;;;204.80;1638.40;;;;;;4973581;28;20041;-55
2022/03/23 00:47:10;;;;;;;40.00;24.13;;;204.80;1638.40;;;;;;4973370;28;20444;-56
2022/03/23 00:49:36;;;;;;;32.60;19.63;;;180.00;1664.00;;;;;;4973357;28;20439;-55
2022/03/23 00:52:05;;;;;;;30.58;16.55;;;180.00;1689.60;;;;;;4973505;28;20117;-54
2022/03/23 00:54:34;;;;;;;32.97;20.02;;;179.90;1689.60;;;;;;4973242;28;20106;-56
2022/03/23 00:57:01;;;;;;;26.35;20.08;;;180.10;1664.00;;;;;;4973422;28;20027;-56
2022/03/23 00:59:27;;;;;;;29.58;20.38;;;180.10;1664.00;;;;;;4973372;28;20030;-56
2022/03/23 01:01:53;;;;;;;31.15;20.67;;;180.10;1664.00;;;;;;4973300;28;20047;-54
2022/03/23 01:04:20;;;;;;;37.47;25.08;;;204.80;1664.00;;;;;;4973287;28;20158;-54
2022/03/23 01:06:46;;;;;;;38.78;26.63;;;180.10;1664.00;;;;;;4973206;28;20038;-56
2022/03/23 01:09:12;;;;;;;42.20;26.83;;;180.10;1664.00;;;;;;4973073;28;20018;-56
2022/03/23 01:11:39;;;;;;;48.47;30.15;;;180.10;1664.00;;;;;;4972117;28;20433;-56
2022/03/23 01:14:06;;;;;;;52.55;32.25;;;180.10;1664.00;;;;;;4973014;28;20023;-55
2022/03/23 01:16:33;;;;;;;43.13;27.67;;;180.10;1664.00;;;;;;4972836;28;20037;-55
2022/03/23 01:19:00;;;;;;;48.50;29.05;;;180.00;1689.60;;;;;;4973160;28;20018;-56
2022/03/23 01:21:26;;;;;;;53.45;33.60;;;180.00;1689.60;;;;;;4972847;28;20091;-54
2022/03/23 01:23:52;;;;;;;78.00;43.38;;;179.90;1715.20;;;;;;4972808;28;20058;-56
2022/03/23 01:26:17;;;;;;;57.33;32.50;;;179.90;1689.60;;;;;;4972725;28;20066;-53
2022/03/23 01:28:44;;;;;;;52.55;35.30;;;179.70;1715.20;;;;;;4972590;28;20026;-56
2022/03/23 01:31:10;;;;;;;52.00;32.55;;;179.70;1740.80;;;;;;4972672;28;20034;-55
2022/03/23 01:33:36;;;;;;;44.72;27.67;;;179.70;1740.80;;;;;;4972680;28;20033;-56
2022/03/23 01:36:02;;;;;;;47.25;29.25;;;179.70;1740.80;;;;;;4972655;28;20030;-56
2022/03/23 01:38:28;;;;;;;43.83;30.85;;;179.70;1715.20;;;;;;4972549;28;20023;-56
2022/03/23 01:40:54;;;;;;;36.30;25.15;;;179.50;1766.40;;;;;;4972222;28;20121;-56
2022/03/23 01:43:20;;;;;;;36.50;23.48;;;179.30;1792.00;;;;;;4972347;28;20039;-56
2022/03/23 01:45:46;;;;;;;28.05;19.35;;;179.40;1766.40;;;;;;4972339;28;20065;-56
2022/03/23 01:48:12;;;;;;;36.42;21.50;;;179.30;1766.40;;;;;;4972282;28;20026;-54
2022/03/23 01:50:37;;;;;;;86.47;48.92;;;179.30;1766.40;;;;;;4972506;28;20105;-56
2022/03/23 01:53:03;;;;;;;98.05;53.17;;;179.40;1766.40;;;;;;4972247;28;20027;-54
2022/03/23 01:55:29;;;;;;;50.95;30.30;;;179.20;1766.40;;;;;;4972211;28;20034;-54
2022/03/23 01:57:55;;;;;;;56.35;31.98;;;179.20;1766.40;;;;;;4972054;28;20046;-56
2022/03/23 02:00:21;;;;;;;51.75;31.48;;;154.50;1792.00;;;;;;4962676;28;20121;-56
2022/03/23 02:02:47;;;;;;;51.63;31.80;;;154.50;1792.00;;;;;;4962986;28;20049;-54
2022/03/23 02:05:14;;;;;;;45.03;24.88;;;154.40;1792.00;;;;;;4960750;28;20166;-55
2022/03/23 02:07:40;;;;;;;35.83;22.05;;;154.30;1817.60;;;;;;4962200;28;20627;-54
2022/03/23 02:10:07;;;;;;;31.63;21.73;;;154.30;1792.00;;;;;;4962605;28;20023;-56
2022/03/23 02:12:33;;;;;;;31.60;22.02;;;154.30;1792.00;;;;;;4960681;28;20089;-55
2022/03/23 02:15:08;;;;;;;41.58;24.00;;;154.30;1792.00;;;;;;4972042;28;20031;-56
2022/03/23 02:17:34;;;;;;;30.05;19.23;;;154.20;1817.60;;;;;;4971718;28;20098;-53
2022/03/23 02:20:01;;;;;;;24.52;14.63;;;154.30;1817.60;;;;;;4971980;28;20022;-56
2022/03/23 02:22:27;;;;;;;22.38;13.45;;;154.00;1843.20;;;;;;4971824;28;20027;-55
2022/03/23 02:24:52;;;;;;;20.05;12.93;;;153.80;1894.40;;;;;;4971707;28;20425;-56
2022/03/23 02:27:18;;;;;;;21.85;13.90;;;153.90;1894.40;;;;;;4971606;28;20031;-54
2022/03/23 02:29:44;;;;;;;21.75;13.00;;;153.90;1868.80;;;;;;4971491;28;20035;-54
2022/03/23 02:32:10;;;;;;;30.85;15.25;;;153.90;1868.80;;;;;;4971856;28;20114;-55
2022/03/23 02:34:36;;;;;;;26.98;16.45;;;154.00;1843.20;;;;;;4971824;28;20051;-55
2022/03/23 02:37:02;;;;;;;21.10;12.30;;;154.00;1843.20;;;;;;4971755;28;20042;-55
2022/03/23 02:39:28;;;;;;;16.92;12.55;;;153.90;1868.80;;;;;;4971589;28;20438;-55
2022/03/23 02:41:56;;;;;;;23.95;13.00;;;153.80;1868.80;;;;;;4971194;28;20077;-54
2022/03/23 02:44:22;;;;;;;26.20;14.27;;;128.90;1894.40;;;;;;4971517;28;20480;-54
2022/03/23 02:46:48;;;;;;;22.35;13.30;;;153.70;1868.80;;;;;;4971528;28;20084;-56
2022/03/23 02:49:16;;;;;;;22.35;13.70;;;153.90;1843.20;;;;;;4971347;28;20035;-54
2022/03/23 02:51:42;;;;;;;24.17;15.50;;;153.90;1843.20;;;;;;4960408;28;20393;-56
2022/03/23 03:02:38;;;;;;;26.10;16.63;;;153.90;1868.80;;;;;;4951874;29;20131;-56
2022/03/23 03:05:06;;;;;;;35.25;17.85;;;153.90;1868.80;;;;;;4951867;29;20051;-56
2022/03/23 03:08:44;;;;;;;26.20;16.45;;;153.90;1843.20;;;;;;4952154;29;20446;-56
2022/03/23 03:10:19;;;;;;;19.05;11.93;;;153.80;1868.80;;;;;;4952148;29;20033;-56
2022/03/23 03:12:46;;;;;;;25.65;12.38;;;128.90;1894.40;;;;;;4951632;29;20095;-55
2022/03/23 03:15:13;;;;;;;19.50;12.25;;;153.60;1894.40;;;;;;4951867;29;20102;-55
2022/03/23 03:17:39;;;;;;;15.95;11.43;;;153.60;1894.40;;;;;;4951817;29;20023;-56
2022/03/23 03:20:06;;;;;;;18.83;11.65;;;153.60;1894.40;;;;;;4951922;29;20112;-57
2022/03/23 03:22:38;;;;;;;16.75;10.73;;;128.80;1920.00;;;;;;4951888;29;20023;-56
2022/03/23 03:25:05;;;;;;;20.48;12.00;;;128.90;1920.00;;;;;;4951727;29;20481;-55
2022/03/23 03:27:35;;;;;;;25.77;13.48;;;128.90;1894.40;;;;;;4951558;29;20043;-56
2022/03/23 03:30:12;;;;;;;23.13;14.00;;;128.90;1894.40;;;;;;4951894;29;20023;-56
2022/03/23 03:32:38;;;;;;;22.05;13.68;;;128.80;1920.00;;;;;;4951790;29;20425;-56
2022/03/23 03:35:04;;;;;;;61.15;50.95;;;128.90;1894.40;;;;;;4952600;28;20037;-56
2022/03/23 03:37:30;;;;;;;26.33;15.93;;;153.60;1894.40;;;;;;4955623;29;20493;-55
2022/03/23 03:39:59;;;;;;;20.83;14.30;;;128.90;1920.00;;;;;;4955557;29;20047;-57
2022/03/23 03:42:26;;;;;;;21.45;13.02;;;128.70;1920.00;;;;;;4954956;29;20456;-55
2022/03/23 03:44:52;;;;;;;23.65;13.15;;;128.60;1945.60;;;;;;4955226;29;20035;-55
2022/03/23 03:47:19;;;;;;;20.58;14.38;;;128.40;1971.20;;;;;;4955389;29;20043;-56
2022/03/23 03:49:46;;;;;;;20.67;13.25;;;128.40;1971.20;;;;;;4955524;29;20027;-54
2022/03/23 03:52:12;;;;;;;20.25;12.93;;;128.40;1971.20;;;;;;4955255;29;20086;-55
2022/03/23 03:54:38;;;;;;;32.33;20.15;;;128.40;1971.20;;;;;;4955176;29;20024;-54
2022/03/23 03:57:04;;;;;;;28.13;18.08;;;128.20;1971.20;;;;;;4954952;29;20035;-54
2022/03/23 03:59:29;;;;;;;57.88;29.90;;;128.00;1996.80;;;;;;4955141;29;20394;-54
2022/03/23 04:01:55;;;;;;;49.20;25.52;;;128.10;1996.80;;;;;;4954966;29;20035;-54
2022/03/23 04:04:22;;;;;;;50.58;28.92;;;128.10;1996.80;;;;;;4954698;29;20051;-56
2022/03/23 04:06:47;;;;;;;85.25;52.33;;;128.10;1996.80;;;;;;4955088;29;20405;-55
2022/03/23 04:09:13;;;;;;;23.50;14.15;;;128.10;1996.80;;;;;;4955015;29;20027;-56
2022/03/23 04:11:39;;;;;;;26.95;16.52;;;128.30;1971.20;;;;;;4954828;29;20179;-56
2022/03/23 04:14:05;;;;;;;50.95;37.50;;;128.30;1971.20;;;;;;4954664;29;20541;-55
2022/03/23 04:16:31;;;;;;;34.90;21.20;;;128.40;1945.60;;;;;;4954836;29;20106;-56
2022/03/23 04:18:57;;;;;;;23.40;16.70;;;128.40;1971.20;;;;;;4954848;29;20031;-55
2022/03/23 04:21:22;;;;;;;19.58;13.80;;;128.40;1971.20;;;;;;4954794;29;20031;-56
2022/03/23 04:23:48;;;;;;;23.55;14.88;;;128.00;1996.80;;;;;;4954972;29;20051;-56
2022/03/23 04:26:14;;;;;;;28.85;20.85;;;103.30;1971.20;;;;;;4954376;29;20039;-54
2022/03/23 04:28:40;;;;;;;25.25;15.77;;;128.00;1996.80;;;;;;4954569;29;20031;-55
2022/03/23 04:31:07;;;;;;;27.23;14.82;;;128.20;1971.20;;;;;;4954300;29;20027;-54
2022/03/23 04:33:33;;;;;;;20.25;12.80;;;128.20;1971.20;;;;;;4954329;29;20485;-54
2022/03/23 04:35:59;;;;;;;23.65;18.38;;;128.30;1945.60;;;;;;4954476;29;20062;-55
2022/03/23 04:38:26;;;;;;;23.88;15.90;;;128.30;1971.20;;;;;;4954283;29;20544;-54
2022/03/23 04:40:52;;;;;;;23.15;13.80;;;128.30;1971.20;;;;;;4954343;29;20030;-55
2022/03/23 04:43:18;;;;;;;28.70;16.08;;;128.20;1996.80;;;;;;4954285;29;20492;-56
2022/03/23 04:45:43;;;;;;;26.05;16.70;;;128.20;1996.80;;;;;;4953831;28;20047;-55
2022/03/23 04:48:09;;;;;;;20.75;16.17;;;128.20;1971.20;;;;;;4953419;29;21005;-56
2022/03/23 04:50:35;;;;;;;22.65;17.20;;;128.30;1996.80;;;;;;4954087;29;20039;-55
2022/03/23 04:53:01;;;;;;;21.70;16.20;;;128.30;1971.20;;;;;;4954360;29;20074;-61
2022/03/23 04:55:26;;;;;;;27.17;20.27;;;128.40;1971.20;;;;;;4954341;29;20386;-56
2022/03/23 04:57:52;;;;;;;29.02;16.98;;;128.40;1971.20;;;;;;4954041;29;20114;-56
2022/03/23 05:00:20;;;;;;;32.03;17.13;;;128.60;1945.60;;;;;;4954227;29;20087;-56
2022/03/23 05:02:48;;;;;;;35.88;23.38;;;128.70;1945.60;;;;;;4953994;29;20031;-56
2022/03/23 05:05:15;;;;;;;33.42;22.33;;;128.80;1945.60;;;;;;4953976;29;20043;-55
2022/03/23 05:07:42;;;;;;;36.05;23.35;;;128.90;1945.60;;;;;;4953967;29;20031;-56
2022/03/23 05:10:08;;;;;;;29.73;19.98;;;153.60;1945.60;;;;;;4953864;29;20102;-55
2022/03/23 05:12:36;;;;;;;26.95;18.05;;;153.60;1945.60;;;;;;4953484;29;20482;-55
2022/03/23 05:15:04;;;;;;;31.33;17.77;;;153.60;1920.00;;;;;;4953761;29;20042;-55
2022/03/23 05:17:31;;;;;;;32.75;20.00;;;153.70;1920.00;;;;;;4953705;29;20041;-56
2022/03/23 05:19:57;;;;;;;37.05;18.85;;;153.80;1920.00;;;;;;4953872;29;20019;-56
2022/03/23 05:22:23;;;;;;;38.13;21.40;;;153.80;1894.40;;;;;;4953521;29;20038;-56
2022/03/23 05:24:48;;;;;;;34.00;22.05;;;153.90;1894.40;;;;;;4953861;29;20078;-55
2022/03/23 05:27:14;;;;;;;31.90;18.77;;;154.00;1894.40;;;;;;4953255;29;20035;-55
2022/03/23 05:29:40;;;;;;;28.45;16.83;;;154.10;1868.80;;;;;;4953473;29;20027;-56
2022/03/23 05:32:06;;;;;;;26.33;15.55;;;154.00;1894.40;;;;;;4953442;29;20023;-56
2022/03/23 05:34:33;;;;;;;30.08;19.30;;;153.90;1894.40;;;;;;4953313;29;20020;-56
2022/03/23 05:36:59;;;;;;;37.63;21.33;;;153.80;1920.00;;;;;;4953410;29;20485;-57
2022/03/23 05:39:24;;;;;;;35.10;21.73;;;153.90;1920.00;;;;;;4953206;29;20027;-56
2022/03/23 05:41:50;;;;;;;62.60;36.90;;;154.20;1894.40;;;;;;4953098;29;20137;-56
2022/03/23 05:44:16;;;;;;;202.15;118.05;;;154.50;1868.80;;;;;;4952969;29;20401;-55
2022/03/23 05:46:41;;;;;;;168.43;97.53;;;154.00;1920.00;;;;;;4952805;29;20032;-55
2022/03/23 05:49:08;;;;;;;76.95;50.47;;;154.40;1894.40;;;;;;4953337;29;20170;-55
2022/03/23 05:51:35;;;;;;;37.05;25.33;;;179.90;1843.20;;;;;;4953048;29;20133;-55
2022/03/23 05:54:02;;;;;;;48.35;29.58;;;230.80;1715.20;;;;;;4953066;29;20118;-54
2022/03/23 05:56:27;;;;;;;42.90;27.95;;;256.60;1561.60;;;;;;4953241;29;20024;-55
2022/03/23 05:58:54;;;;;;;56.75;23.90;;;282.10;1484.80;;;;;;4952523;28;20028;-56
2022/03/23 06:01:20;;;;;;;44.08;25.70;;;282.50;1484.80;;;;;;4953001;29;20027;-56
2022/03/23 06:03:49;;;;;;;53.55;36.22;;;282.30;1459.20;;;;;;4952755;29;20055;-55
2022/03/23 06:06:15;;;;;;;33.92;24.17;;;282.50;1484.80;;;;;;4952564;29;20102;-55
2022/03/23 06:08:41;;;;;;;31.55;21.55;;;333.70;1382.40;;;;;;4952628;29;20028;-55
2022/03/23 06:11:07;;;;;;;35.25;22.38;;;359.10;1280.00;;;;;;4957617;28;20025;-56
2022/03/23 06:13:33;;;;;;;72.50;50.42;;;409.70;1280.00;;;;;;4962880;28;20529;-57
2022/03/23 06:15:59;;;;;;;68.03;50.60;;;409.70;1228.80;;;;;;4963460;28;20043;-57
2022/03/23 06:18:24;;;;;;;39.03;28.23;;;435.50;1177.60;;;;;;4971663;28;20027;-55
2022/03/23 06:20:51;;;;;;;29.20;20.63;;;436.10;1126.40;;;;;;4972106;28;20050;-56
2022/03/23 06:23:17;;;;;;;32.40;25.33;;;461.30;1126.40;;;;;;4971838;28;20042;-56
2022/03/23 06:25:42;;;;;;;31.00;24.38;;;486.80;1075.20;;;;;;4971532;28;20031;-56
2022/03/23 06:28:08;;;;;;;41.30;28.48;;;487.10;1049.60;;;;;;4971768;28;20030;-56
2022/03/23 06:30:34;;;;;;;123.90;100.55;;;487.10;1049.60;;;;;;4971510;28;20026;-57
2022/03/23 06:33:01;;;;;;;107.32;91.93;;;512.90;998.40;;;;;;4971635;28;20238;-57
2022/03/23 06:35:28;;;;;;;67.22;57.65;;;538.00;998.40;;;;;;4971661;28;20070;-57
2022/03/23 06:37:53;;;;;;;31.63;26.13;;;563.60;972.80;;;;;;4971539;28;20033;-56
2022/03/23 06:40:20;;;;;;;31.88;24.75;;;538.20;972.80;;;;;;4971569;28;20105;-56
2022/03/23 06:42:47;;;;;;;78.13;69.90;;;563.40;998.40;;;;;;4971476;28;20065;-57
2022/03/23 06:45:13;;;;;;;34.60;31.10;;;563.40;972.80;;;;;;4971123;28;20031;-55
2022/03/23 06:47:39;;;;;;;52.47;41.25;;;588.80;947.20;;;;;;4971366;28;20038;-58
2022/03/23 06:50:07;;;;;;;53.63;38.53;;;564.10;947.20;;;;;;4971530;28;20073;-57
2022/03/23 06:52:33;;;;;;;33.38;29.98;;;563.70;972.80;;;;;;4962494;28;20043;-57
2022/03/23 06:54:59;;;;;;;40.47;32.53;;;589.40;947.20;;;;;;4968821;28;20078;-58
2022/03/23 06:57:25;;;;;;;33.65;30.08;;;640.00;870.40;;;;;;4971125;28;20038;-56
2022/03/23 06:59:51;;;;;;;36.30;29.10;;;640.60;844.80;;;;;;4971579;28;20022;-58
2022/03/23 07:02:16;;;;;;;33.45;30.05;;;640.00;870.40;;;;;;4971319;28;20088;-57
2022/03/23 07:04:42;;;;;;;34.00;30.10;;;615.20;870.40;;;;;;4971028;28;20053;-58
2022/03/23 07:07:08;;;;;;;35.90;32.42;;;640.20;870.40;;;;;;4971486;28;20478;-57
2022/03/23 07:09:38;;;;;;;46.50;41.65;;;665.70;844.80;;;;;;4971315;28;20027;-56
2022/03/23 07:12:07;;;;;;;42.45;37.25;;;691.60;793.60;;;;;;4974993;28;20492;-56
2022/03/23 07:14:34;;;;;;;50.35;45.03;;;692.00;793.60;;;;;;4975072;28;20062;-56
2022/03/23 07:17:00;;;;;;;41.38;36.63;;;716.90;793.60;;;;;;4975308;28;20069;-56
2022/03/23 07:19:26;;;;;;;41.13;35.55;;;717.10;793.60;;;;;;4975061;28;20030;-54
2022/03/23 07:21:52;;;;;;;42.88;38.42;;;717.10;793.60;;;;;;4975186;28;20027;-55
2022/03/23 07:24:19;;;;;;;40.92;36.80;;;742.50;793.60;;;;;;4975161;28;20035;-55
2022/03/23 07:26:45;;;;;;;67.50;60.13;;;742.50;793.60;;;;;;4974688;28;20046;-55
2022/03/23 07:29:11;;;;;;;73.57;62.13;;;717.20;793.60;;;;;;4974980;28;20027;-55
2022/03/23 07:31:36;;;;;;;71.90;64.25;;;716.90;793.60;;;;;;4974953;28;20086;-56
2022/03/23 07:34:03;;;;;;;68.00;60.92;;;717.40;768.00;;;;;;4974375;28;20027;-57
2022/03/23 07:36:29;;;;;;;81.68;73.05;;;742.90;768.00;;;;;;4971785;28;20026;-56
2022/03/23 07:38:55;;;;;;;80.47;72.20;;;768.60;742.40;;;;;;4946841;29;20504;-56
2022/03/23 07:41:21;;;;;;;67.15;60.22;;;768.60;742.40;;;;;;4961273;28;20114;-54
2022/03/23 07:43:48;;;;;;;55.38;49.65;;;716.90;793.60;;;;;;4963129;28;20441;-56
2022/03/23 07:46:14;;;;;;;57.55;50.90;;;717.40;742.40;;;;;;4955121;29;20074;-55
2022/03/23 07:48:40;;;;;;;54.15;48.47;;;742.80;742.40;;;;;;4957420;28;20051;-55
2022/03/23 07:51:06;;;;;;;47.00;41.85;;;716.80;768.00;;;;;;4963656;28;20019;-54
2022/03/23 07:53:32;;;;;;;40.28;35.92;;;691.80;742.40;;;;;;4962230;28;20038;-55
2022/03/23 07:55:58;;;;;;;46.08;41.15;;;691.40;742.40;;;;;;4964441;28;20027;-54
2022/03/23 07:58:25;;;;;;;111.57;100.15;;;691.70;742.40;;;;;;4963139;28;20414;-57
2022/03/23 08:00:51;;;;;;;62.75;56.17;;;716.90;742.40;;;;;;4962621;28;20401;-63
2022/03/23 08:03:18;;;;;;;93.32;84.03;;;691.90;742.40;;;;;;4964078;28;20043;-64
2022/03/23 08:05:44;;;;;;;63.47;56.90;;;742.50;742.40;;;;;;4953480;29;20077;-64
2022/03/23 08:08:10;;;;;;;81.40;74.03;;;743.20;716.80;;;;;;4953779;29;20034;-57
2022/03/23 08:10:40;;;;;;;56.80;51.05;;;768.60;691.20;;;;;;4953511;29;20019;-56
2022/03/23 08:13:07;;;;;;;52.80;47.42;;;819.40;640.00;;;;;;4953315;29;20046;-56
2022/03/23 08:15:33;;;;;;;50.65;45.72;;;819.60;640.00;;;;;;4953429;29;20035;-57
2022/03/23 08:17:58;;;;;;;44.35;39.72;;;819.60;640.00;;;;;;4953679;29;20027;-57
2022/03/23 08:20:33;;;;;;;47.65;42.70;;;768.40;665.60;;;;;;4953350;28;20034;-57
2022/03/23 08:23:15;;;;;;;43.42;39.00;;;768.00;665.60;;;;;;4946701;29;20027;-55
2022/03/23 08:25:42;;;;;;;41.75;37.22;;;743.10;665.60;;;;;;4953350;29;20046;-55
2022/03/23 08:28:10;;;;;;;44.65;38.88;;;743.00;665.60;;;;;;4953338;29;20175;-57
2022/03/23 08:30:36;;;;;;;46.47;41.45;;;717.50;691.20;;;;;;4953039;29;20019;-57
2022/03/23 08:33:03;;;;;;;45.17;40.40;;;743.30;665.60;;;;;;4953264;29;20039;-59
2022/03/23 08:35:30;;;;;;;37.40;33.22;;;768.10;665.60;;;;;;4953566;29;20072;-57
2022/03/23 08:37:57;;;;;;;38.40;34.33;;;717.10;716.80;;;;;;4953225;29;20027;-58
2022/03/23 08:40:23;;;;;;;54.30;41.80;;;717.50;716.80;;;;;;4953175;29;20537;-58
2022/03/23 08:42:49;;;;;;;53.60;43.88;;;717.30;716.80;;;;;;4953246;29;20039;-58
2022/03/23 08:45:15;;;;;;;43.05;36.97;;;768.10;691.20;;;;;;4952948;29;20038;-57
2022/03/23 08:47:42;;;;;;;43.72;39.35;;;743.20;691.20;;;;;;4952812;29;20118;-58
2022/03/23 08:50:10;;;;;;;42.40;37.92;;;793.70;665.60;;;;;;4953254;29;20023;-57
2022/03/23 08:52:37;;;;;;;57.33;51.03;;;742.90;716.80;;;;;;4953217;29;20024;-57
2022/03/23 08:55:09;;;;;;;38.78;32.45;;;768.10;691.20;;;;;;4952934;29;20026;-57
2022/03/23 08:57:36;;;;;;;39.25;34.92;;;742.50;716.80;;;;;;4952871;29;20031;-58
2022/03/23 09:00:04;;;;;;;62.55;55.17;;;691.80;716.80;;;;;;4952843;29;20371;-57
2022/03/23 09:02:30;;;;;;;24.33;21.75;;;717.40;716.80;;;;;;4953088;29;20023;-57
2022/03/23 09:04:56;;;;;;;36.75;26.48;;;692.10;691.20;;;;;;4911647;29;1231530;-57
2022/03/23 09:07:21;;;;;;;30.15;22.77;;;666.10;742.40;;;;;;4953802;29;20090;-55
2022/03/23 09:09:47;;;;;;;32.42;25.15;;;615.20;768.00;;;;;;4954020;29;20110;-55
2022/03/23 09:12:13;;;;;;;35.60;26.13;;;589.70;819.20;;;;;;4953557;29;20082;-55
2022/03/23 09:14:39;;;;;;;33.80;24.52;;;589.00;870.40;;;;;;4953788;29;20039;-56
2022/03/23 09:17:05;;;;;;;31.38;22.80;;;564.00;844.80;;;;;;4953781;29;20035;-55
2022/03/23 09:19:31;;;;;;;31.80;22.83;;;563.60;896.00;;;;;;4953678;29;20020;-55
2022/03/23 09:21:59;;;;;;;35.78;21.42;;;563.20;921.60;;;;;;4953639;29;20106;-55
2022/03/23 09:24:28;;;;;;;31.73;19.88;;;563.20;896.00;;;;;;4953411;29;20027;-55
2022/03/23 09:26:55;;;;;;;33.90;20.83;;;538.40;896.00;;;;;;4953363;29;20046;-55
2022/03/23 09:29:21;;;;;;;34.40;22.48;;;538.50;896.00;;;;;;4953459;29;20425;-55
2022/03/23 09:31:47;;;;;;;32.78;19.70;;;538.40;921.60;;;;;;4953891;29;20089;-57
2022/03/23 09:34:13;;;;;;;29.98;18.38;;;512.20;921.60;;;;;;4952881;28;20082;-57
2022/03/23 09:39:23;;;;;;;34.05;23.08;;;512.70;947.20;;;;;;4953181;29;20042;-56
2022/03/23 09:41:49;;;;;;;24.15;16.77;;;512.40;921.60;;;;;;4953270;29;20106;-57
2022/03/23 09:44:16;;;;;;;29.23;18.88;;;512.60;921.60;;;;;;4953157;29;20043;-56
2022/03/23 09:46:43;;;;;;;26.90;17.98;;;512.90;921.60;;;;;;4952827;29;20039;-57
2022/03/23 09:49:09;;;;;;;24.08;15.88;;;512.60;921.60;;;;;;4953056;29;20106;-56
2022/03/23 09:51:38;;;;;;;27.27;14.48;;;487.30;947.20;;;;;;4952846;29;20035;-57
2022/03/23 09:54:05;;;;;;;24.60;15.35;;;512.20;947.20;;;;;;4952806;29;20027;-57
2022/03/23 09:56:31;;;;;;;28.80;17.13;;;512.40;947.20;;;;;;4952990;29;20031;-57
2022/03/23 09:58:57;;;;;;;27.77;16.30;;;512.40;947.20;;;;;;4953107;29;20075;-57
2022/03/23 10:01:29;;;;;;;26.38;15.23;;;512.40;972.80;;;;;;4952829;29;20108;-57
2022/03/23 10:04:06;;;;;;;21.70;15.40;;;487.30;972.80;;;;;;4952555;29;20062;-56
2022/03/23 10:06:54;;;;;;;23.50;15.32;;;512.20;947.20;;;;;;4952922;29;20039;-57
2022/03/23 10:09:25;;;;;;;30.27;15.55;;;512.10;947.20;;;;;;4947204;29;20470;-62
2022/03/23 10:12:22;;;;;;;24.98;16.00;;;487.00;972.80;;;;;;4952593;29;20046;-58
2022/03/23 10:15:24;;;;;;;22.67;16.90;;;487.10;972.80;;;;;;4952860;29;20042;-57
2022/03/23 10:18:39;;;;;;;33.75;22.85;;;487.30;998.40;;;;;;4952563;29;20587;-57
2022/03/23 10:21:07;;;;;;;27.55;15.40;;;487.00;972.80;;;;;;4952381;29;20028;-57
2022/03/23 10:23:33;;;;;;;24.15;15.80;;;487.30;972.80;;;;;;4952417;29;20482;-60
2022/03/23 10:26:11;;;;;;;21.33;12.48;;;487.00;972.80;;;;;;4952482;29;20039;-57
2022/03/23 10:28:37;;;;;;;25.98;14.85;;;461.60;998.40;;;;;;4952419;29;20151;-61
2022/03/23 10:31:14;;;;;;;23.83;12.50;;;461.70;998.40;;;;;;4952240;29;20434;-57
2022/03/23 10:33:39;;;;;;;22.98;11.93;;;461.60;998.40;;;;;;4952324;29;20019;-56
2022/03/23 10:36:05;;;;;;;19.42;9.35;;;486.50;1024.00;;;;;;4952112;29;20030;-56
2022/03/23 10:38:37;;;;;;;17.25;9.27;;;461.60;972.80;;;;;;4952300;29;20106;-56
2022/03/23 10:41:10;;;;;;;14.37;10.73;;;486.40;972.80;;;;;;4951971;29;20046;-56
2022/03/23 10:43:38;;;;;;;21.85;12.40;;;486.40;972.80;;;;;;4951828;28;20348;-57
2022/03/23 10:46:09;;;;;;;25.60;11.55;;;486.50;972.80;;;;;;4952039;29;20035;-56
2022/03/23 10:48:34;;;;;;;17.42;11.90;;;461.70;972.80;;;;;;4952028;29;20110;-56
2022/03/23 10:51:00;;;;;;;21.92;13.52;;;461.40;998.40;;;;;;4952170;29;20445;-56
2022/03/23 10:53:41;;;;;;;19.25;11.68;;;486.50;972.80;;;;;;4952001;29;20038;-56
2022/03/23 10:56:07;;;;;;;22.88;10.07;;;486.50;972.80;;;;;;4952281;29;20031;-57
2022/03/23 10:58:34;;;;;;;18.38;9.63;;;461.50;998.40;;;;;;4951893;29;20106;-57
2022/03/23 11:01:05;;;;;;;21.10;10.80;;;461.20;998.40;;;;;;4952190;29;20083;-55
2022/03/23 11:03:43;;;;;;;18.35;10.18;;;461.40;972.80;;;;;;4951995;29;20122;-57
2022/03/23 11:06:12;;;;;;;23.38;15.60;;;486.50;972.80;;;;;;4952225;29;20087;-58
2022/03/23 11:08:38;;;;;;;22.05;11.02;;;486.70;972.80;;;;;;4952005;29;20497;-58
2022/03/23 11:16:44;;;;;;;19.92;9.93;;;461.60;972.80;;;;;;4952013;29;20046;-63
2022/03/23 11:19:13;;;;;;;21.10;11.68;;;486.40;998.40;;;;;;4952012;29;20019;-56
2022/03/23 11:22:10;;;;;;;23.98;11.90;;;486.50;998.40;;;;;;4951888;29;20035;-56
2022/03/23 11:24:36;;;;;;;23.92;10.50;;;486.50;972.80;;;;;;4951608;29;20038;-55
2022/03/23 11:27:07;;;;;;;34.60;12.48;;;486.90;1024.00;;;;;;4951524;29;20035;-56
2022/03/23 11:29:34;;;;;;;21.20;13.23;;;487.00;998.40;;;;;;4951612;29;20030;-57
2022/03/23 11:32:08;;;;;;;26.55;15.15;;;487.00;1024.00;;;;;;4951738;29;20031;-61
2022/03/23 11:34:37;;;;;;;19.27;9.85;;;461.50;998.40;;;;;;4951494;29;20023;-57
2022/03/23 11:37:03;;;;;;;19.17;11.48;;;486.40;972.80;;;;;;4951570;29;20035;-56
2022/03/23 11:39:30;;;;;;;21.45;12.25;;;486.70;947.20;;;;;;4951677;29;20382;-57
2022/03/23 11:41:58;;;;;;;19.85;11.45;;;486.40;998.40;;;;;;4951647;29;20467;-56
2022/03/23 11:44:26;;;;;;;54.47;14.65;;;486.50;972.80;;;;;;4951605;29;20035;-60
2022/03/23 11:46:59;;;;;;;26.70;13.88;;;486.50;1049.60;;;;;;4951544;29;20039;-58
2022/03/23 11:49:39;;;;;;;32.10;14.20;;;486.70;1024.00;;;;;;4951507;29;20497;-56
2022/03/23 11:52:47;;;;;;;29.08;13.93;;;486.60;1024.00;;;;;;4951279;29;20031;-57
2022/03/23 11:55:40;;;;;;;29.17;12.45;;;461.60;1024.00;;;;;;4950912;28;20036;-57
2022/03/23 12:00:50;;;;;;;23.77;12.95;;;461.70;1024.00;;;;;;4954914;29;20293;-57
2022/03/23 12:03:41;;;;;;;20.45;12.40;;;461.30;1049.60;;;;;;4955050;29;20051;-56
2022/03/23 12:06:23;;;;;;;30.55;14.30;;;461.50;1049.60;;;;;;4955006;29;20117;-56
2022/03/23 12:08:58;;;;;;;30.23;20.05;;;461.70;1049.60;;;;;;4954198;29;20034;-58
2022/03/23 12:11:43;;;;;;;22.65;14.25;;;486.40;1049.60;;;;;;4953280;29;20457;-56
2022/03/23 12:14:39;;;;;;;26.33;14.00;;;461.70;1024.00;;;;;;4953408;29;20039;-56
2022/03/23 12:17:18;;;;;;;32.53;15.40;;;461.60;1049.60;;;;;;4887374;29;20047;-57
2022/03/23 12:20:08;;;;;;;24.67;12.85;;;461.50;1024.00;;;;;;4893784;29;20453;-54
2022/03/23 12:22:34;;;;;;;19.08;12.70;;;461.50;1024.00;;;;;;4893269;29;20495;-57
2022/03/23 12:25:21;;;;;;;28.88;12.80;;;461.50;1024.00;;;;;;4893845;29;20092;-56
2022/03/23 12:28:02;;;;;;;28.30;18.40;;;461.70;1024.00;;;;;;4893473;29;20136;-57